sensor_id;sensor_type;location;lat;lon;timestamp;pressure;altitude;pressure_sealevel;temperature;humidity
42067;BME280;27734;47.028;28.820;2022-12-10T00:01:07;99913.28;;;5.84;100.00
42067;BME280;27734;47.028;28.820;2022-12-10T00:03:38;99913.35;;;5.86;100.00
42067;BME280;27734;47.028;28.820;2022-12-10T00:06:12;99914.34;;;5.88;100.00
42067;BME280;27734;47.028;28.820;2022-12-10T00:08:44;99900.47;;;5.89;100.00
42067;BME280;27734;47.028;28.820;2022-12-10T00:11:16;99903.99;;;5.89;100.00
42067;BME280;27734;47.028;28.820;2022-12-10T00:13:48;99894.52;;;5.91;100.00
42067;BME280;27734;47.028;28.820;2022-12-10T00:16:21;99896.25;;;5.91;100.00
42067;BME280;27734;47.028;28.820;2022-12-10T00:18:54;99894.66;;;5.94;100.00
42067;BME280;27734;47.028;28.820;2022-12-10T00:21:28;99904.27;;;5.96;100.00
42067;BME280;27734;47.028;28.820;2022-12-10T00:23:58;99892.13;;;5.96;100.00
42067;BME280;27734;47.028;28.820;2022-12-10T00:26:30;99894.83;;;5.98;100.00
42067;BME280;27734;47.028;28.820;2022-12-10T00:29:03;99885.30;;;5.98;100.00
42067;BME280;27734;47.028;28.820;2022-12-10T00:31:37;99879.34;;;6.01;100.00
42067;BME280;27734;47.028;28.820;2022-12-10T00:34:09;99866.39;;;6.02;100.00
42067;BME280;27734;47.028;28.820;2022-12-10T00:36:42;99863.84;;;6.04;100.00
42067;BME280;27734;47.028;28.820;2022-12-10T00:39:16;99856.91;;;6.04;100.00
42067;BME280;27734;47.028;28.820;2022-12-10T00:41:48;99858.77;;;6.07;100.00
42067;BME280;27734;47.028;28.820;2022-12-10T00:44:20;99855.42;;;6.09;100.00
42067;BME280;27734;47.028;28.820;2022-12-10T00:46:51;99851.16;;;6.11;100.00
42067;BME280;27734;47.028;28.820;2022-12-10T00:49:22;99842.53;;;6.13;100.00
42067;BME280;27734;47.028;28.820;2022-12-10T00:51:54;99846.08;;;6.15;100.00
42067;BME280;27734;47.028;28.820;2022-12-10T00:54:25;99840.05;;;6.16;100.00
42067;BME280;27734;47.028;28.820;2022-12-10T00:56:56;99836.61;;;6.17;100.00
42067;BME280;27734;47.028;28.820;2022-12-10T00:59:27;99830.58;;;6.18;100.00
42067;BME280;27734;47.028;28.820;2022-12-10T01:01:59;99827.16;;;6.19;100.00
42067;BME280;27734;47.028;28.820;2022-12-10T01:04:31;99825.50;;;6.21;100.00
42067;BME280;27734;47.028;28.820;2022-12-10T01:07:02;99816.02;;;6.23;100.00
42067;BME280;27734;47.028;28.820;2022-12-10T01:09:33;99813.55;;;6.26;100.00
42067;BME280;27734;47.028;28.820;2022-12-10T01:12:05;99810.13;;;6.27;100.00
42067;BME280;27734;47.028;28.820;2022-12-10T01:14:36;99799.83;;;6.30;100.00
42067;BME280;27734;47.028;28.820;2022-12-10T01:17:07;99796.41;;;6.31;100.00
42067;BME280;27734;47.028;28.820;2022-12-10T01:19:39;99791.23;;;6.33;100.00
42067;BME280;27734;47.028;28.820;2022-12-10T01:22:10;99793.09;;;6.35;100.00
42067;BME280;27734;47.028;28.820;2022-12-10T01:24:41;99789.66;;;6.36;100.00
42067;BME280;27734;47.028;28.820;2022-12-10T01:27:12;99788.81;;;6.37;100.00
42067;BME280;27734;47.028;28.820;2022-12-10T01:29:43;99790.67;;;6.40;100.00
42067;BME280;27734;47.028;28.820;2022-12-10T01:32:15;99791.67;;;6.43;100.00
42067;BME280;27734;47.028;28.820;2022-12-10T01:34:46;99783.92;;;6.45;100.00
42067;BME280;27734;47.028;28.820;2022-12-10T01:37:17;99788.37;;;6.47;100.00
42067;BME280;27734;47.028;28.820;2022-12-10T01:39:48;99774.53;;;6.48;100.00
42067;BME280;27734;47.028;28.820;2022-12-10T01:42:22;99767.66;;;6.51;100.00
42067;BME280;27734;47.028;28.820;2022-12-10T01:45:08;99765.11;;;6.52;100.00
42067;BME280;27734;47.028;28.820;2022-12-10T01:47:40;99768.59;;;6.53;100.00
42067;BME280;27734;47.028;28.820;2022-12-10T01:50:11;99756.53;;;6.55;100.00
42067;BME280;27734;47.028;28.820;2022-12-10T01:52:42;99753.08;;;6.56;100.00
42067;BME280;27734;47.028;28.820;2022-12-10T01:55:37;99754.05;;;6.58;100.00
42067;BME280;27734;47.028;28.820;2022-12-10T01:58:09;99750.59;;;6.59;100.00
42067;BME280;27734;47.028;28.820;2022-12-10T02:00:48;99749.77;;;6.60;100.00
42067;BME280;27734;47.028;28.820;2022-12-10T02:06:23;99744.74;;;6.64;100.00
42067;BME280;27734;47.028;28.820;2022-12-10T02:09:04;99748.29;;;6.66;100.00
42067;BME280;27734;47.028;28.820;2022-12-10T02:11:44;99739.71;;;6.69;100.00
42067;BME280;27734;47.028;28.820;2022-12-10T02:14:22;99736.34;;;6.72;100.00
42067;BME280;27734;47.028;28.820;2022-12-10T02:16:58;99728.58;;;6.73;100.00
42067;BME280;27734;47.028;28.820;2022-12-10T02:19:44;99734.73;;;6.75;100.00
42067;BME280;27734;47.028;28.820;2022-12-10T02:22:19;99721.81;;;6.78;100.00
42067;BME280;27734;47.028;28.820;2022-12-10T02:24:53;99718.45;;;6.81;100.00
42067;BME280;27734;47.028;28.820;2022-12-10T02:27:29;99706.28;;;6.81;100.00
42067;BME280;27734;47.028;28.820;2022-12-10T02:30:05;99706.34;;;6.83;100.00
42067;BME280;27734;47.028;28.820;2022-12-10T02:32:38;99699.40;;;6.83;100.00
42067;BME280;27734;47.028;28.820;2022-12-10T02:35:15;99689.88;;;6.84;100.00
42067;BME280;27734;47.028;28.820;2022-12-10T02:37:51;99694.19;;;6.83;100.00
42067;BME280;27734;47.028;28.820;2022-12-10T02:40:28;99688.09;;;6.83;100.00
42067;BME280;27734;47.028;28.820;2022-12-10T02:43:01;99685.42;;;6.81;100.00
42067;BME280;27734;47.028;28.820;2022-12-10T02:45:33;99696.73;;;6.82;100.00
42067;BME280;27734;47.028;28.820;2022-12-10T02:48:05;99682.81;;;6.81;100.00
42067;BME280;27734;47.028;28.820;2022-12-10T02:50:41;99682.81;;;6.81;100.00
42067;BME280;27734;47.028;28.820;2022-12-10T02:53:12;99679.33;;;6.81;100.00
42067;BME280;27734;47.028;28.820;2022-12-10T02:55:57;99675.88;;;6.82;100.00
42067;BME280;27734;47.028;28.820;2022-12-10T02:58:39;99667.23;;;6.83;100.00
42067;BME280;27734;47.028;28.820;2022-12-10T03:01:19;99668.16;;;6.85;100.00
42067;BME280;27734;47.028;28.820;2022-12-10T03:03:58;99666.44;;;6.86;100.00
42067;BME280;27734;47.028;28.820;2022-12-10T03:06:35;99668.22;;;6.87;100.00
42067;BME280;27734;47.028;28.820;2022-12-10T03:09:11;99663.00;;;6.87;100.00
42067;BME280;27734;47.028;28.820;2022-12-10T03:11:45;99653.51;;;6.89;100.00
42067;BME280;27734;47.028;28.820;2022-12-10T03:14:18;99645.68;;;6.89;100.00
42067;BME280;27734;47.028;28.820;2022-12-10T03:16:53;99646.65;;;6.91;100.00
42067;BME280;27734;47.028;28.820;2022-12-10T03:19:30;99644.92;;;6.91;100.00
42067;BME280;27734;47.028;28.820;2022-12-10T03:22:03;99651.98;;;6.94;100.00
42067;BME280;27734;47.028;28.820;2022-12-10T03:24:35;99636.39;;;6.95;100.00
42067;BME280;27734;47.028;28.820;2022-12-10T03:27:07;99637.27;;;6.96;100.00
42067;BME280;27734;47.028;28.820;2022-12-10T03:29:44;99629.55;;;6.99;100.00
42067;BME280;27734;47.028;28.820;2022-12-10T03:32:18;99632.21;;;7.00;100.00
42067;BME280;27734;47.028;28.820;2022-12-10T03:34:54;99629.61;;;7.00;100.00
42067;BME280;27734;47.028;28.820;2022-12-10T03:37:27;99645.31;;;7.02;100.00
42067;BME280;27734;47.028;28.820;2022-12-10T03:39:59;99634.05;;;7.03;100.00
42067;BME280;27734;47.028;28.820;2022-12-10T03:42:30;99621.95;;;7.05;100.00
42067;BME280;27734;47.028;28.820;2022-12-10T03:45:02;99615.00;;;7.06;100.00
42067;BME280;27734;47.028;28.820;2022-12-10T03:47:34;99610.69;;;7.06;100.00
42067;BME280;27734;47.028;28.820;2022-12-10T03:50:06;99608.19;;;7.09;100.00
42067;BME280;27734;47.028;28.820;2022-12-10T03:52:38;99600.41;;;7.11;100.00
42067;BME280;27734;47.028;28.820;2022-12-10T03:55:10;99594.34;;;7.12;100.00
42067;BME280;27734;47.028;28.820;2022-12-10T03:57:41;99601.34;;;7.13;100.00
42067;BME280;27734;47.028;28.820;2022-12-10T04:00:14;99600.52;;;7.14;100.00
42067;BME280;27734;47.028;28.820;2022-12-10T04:02:45;99610.16;;;7.16;100.00
42067;BME280;27734;47.028;28.820;2022-12-10T04:05:17;99605.85;;;7.17;100.00
42067;BME280;27734;47.028;28.820;2022-12-10T04:07:48;99598.02;;;7.17;100.00
42067;BME280;27734;47.028;28.820;2022-12-10T04:10:19;99592.86;;;7.18;100.00
42067;BME280;27734;47.028;28.820;2022-12-10T04:12:51;99592.00;;;7.19;100.00
42067;BME280;27734;47.028;28.820;2022-12-10T04:15:39;99597.22;;;7.19;100.00
42067;BME280;27734;47.028;28.820;2022-12-10T04:18:28;99588.57;;;7.20;100.00
42067;BME280;27734;47.028;28.820;2022-12-10T04:20:59;99581.62;;;7.21;100.00
42067;BME280;27734;47.028;28.820;2022-12-10T04:23:48;99591.23;;;7.22;100.00
42067;BME280;27734;47.028;28.820;2022-12-10T04:26:37;99586.94;;;7.24;100.00
42067;BME280;27734;47.028;28.820;2022-12-10T04:29:25;99577.36;;;7.23;100.00
42067;BME280;27734;47.028;28.820;2022-12-10T04:31:57;99571.28;;;7.24;100.00
42067;BME280;27734;47.028;28.820;2022-12-10T04:34:29;99565.30;;;7.27;100.00
42067;BME280;27734;47.028;28.820;2022-12-10T04:37:01;99566.17;;;7.27;100.00
42067;BME280;27734;47.028;28.820;2022-12-10T04:39:32;99549.64;;;7.27;100.00
42067;BME280;27734;47.028;28.820;2022-12-10T04:42:03;99548.77;;;7.26;100.00
42067;BME280;27734;47.028;28.820;2022-12-10T04:44:35;99537.52;;;7.29;100.00
42067;BME280;27734;47.028;28.820;2022-12-10T04:47:08;99530.55;;;7.28;100.00
42067;BME280;27734;47.028;28.820;2022-12-10T04:49:40;99531.42;;;7.28;100.00
42067;BME280;27734;47.028;28.820;2022-12-10T04:52:13;99533.20;;;7.29;100.00
42067;BME280;27734;47.028;28.820;2022-12-10T04:54:45;99530.66;;;7.31;100.00
42067;BME280;27734;47.028;28.820;2022-12-10T04:57:16;99528.97;;;7.33;100.00
42067;BME280;27734;47.028;28.820;2022-12-10T04:59:47;99529.02;;;7.34;100.00
42067;BME280;27734;47.028;28.820;2022-12-10T05:02:18;99522.98;;;7.35;100.00
42067;BME280;27734;47.028;28.820;2022-12-10T05:04:51;99521.30;;;7.37;100.00
42067;BME280;27734;47.028;28.820;2022-12-10T05:07:22;99508.30;;;7.39;100.00
42067;BME280;27734;47.028;28.820;2022-12-10T05:09:53;99515.31;;;7.42;100.00
42067;BME280;27734;47.028;28.820;2022-12-10T05:12:24;99508.49;;;7.45;100.00
42067;BME280;27734;47.028;28.820;2022-12-10T05:14:55;99499.80;;;7.46;100.00
42067;BME280;27734;47.028;28.820;2022-12-10T05:17:26;99503.38;;;7.48;100.00
42067;BME280;27734;47.028;28.820;2022-12-10T05:19:59;99517.34;;;7.50;100.00
42067;BME280;27734;47.028;28.820;2022-12-10T05:22:30;99505.22;;;7.52;100.00
42067;BME280;27734;47.028;28.820;2022-12-10T05:25:19;99509.66;;;7.55;100.00
42067;BME280;27734;47.028;28.820;2022-12-10T05:27:50;99512.27;;;7.55;100.00
42067;BME280;27734;47.028;28.820;2022-12-10T05:30:21;99507.16;;;7.58;100.00
42067;BME280;27734;47.028;28.820;2022-12-10T05:32:52;99513.25;;;7.59;100.00
42067;BME280;27734;47.028;28.820;2022-12-10T05:35:24;99518.52;;;7.60;100.00
42067;BME280;27734;47.028;28.820;2022-12-10T05:37:55;99515.95;;;7.62;100.00
42067;BME280;27734;47.028;28.820;2022-12-10T05:40:26;99515.08;;;7.61;100.00
42067;BME280;27734;47.028;28.820;2022-12-10T05:42:57;99521.23;;;7.63;100.00
42067;BME280;27734;47.028;28.820;2022-12-10T05:45:28;99518.66;;;7.65;100.00
42067;BME280;27734;47.028;28.820;2022-12-10T05:48:02;99523.06;;;7.66;100.00
42067;BME280;27734;47.028;28.820;2022-12-10T05:50:34;99515.28;;;7.67;100.00
42067;BME280;27734;47.028;28.820;2022-12-10T05:53:05;99514.50;;;7.70;100.00
42067;BME280;27734;47.028;28.820;2022-12-10T05:55:36;99509.27;;;7.70;100.00
42067;BME280;27734;47.028;28.820;2022-12-10T05:58:07;99510.16;;;7.70;100.00
42067;BME280;27734;47.028;28.820;2022-12-10T06:00:40;99512.91;;;7.75;100.00
42067;BME280;27734;47.028;28.820;2022-12-10T06:03:11;99511.17;;;7.76;100.00
42067;BME280;27734;47.028;28.820;2022-12-10T06:05:42;99515.61;;;7.78;100.00
42067;BME280;27734;47.028;28.820;2022-12-10T06:08:13;99509.66;;;7.82;100.00
42067;BME280;27734;47.028;28.820;2022-12-10T06:10:45;99511.50;;;7.86;100.00
42067;BME280;27734;47.028;28.820;2022-12-10T06:13:16;99514.16;;;7.88;100.00
42067;BME280;27734;47.028;28.820;2022-12-10T06:15:47;99506.37;;;7.89;100.00
42067;BME280;27734;47.028;28.820;2022-12-10T06:18:18;99500.37;;;7.92;100.00
42067;BME280;27734;47.028;28.820;2022-12-10T06:20:50;99496.98;;;7.96;100.00
42067;BME280;27734;47.028;28.820;2022-12-10T06:23:21;99492.72;;;7.98;100.00
42067;BME280;27734;47.028;28.820;2022-12-10T06:25:52;99496.25;;;8.00;100.00
42067;BME280;27734;47.028;28.820;2022-12-10T06:28:24;99498.08;;;8.03;100.00
42067;BME280;27734;47.028;28.820;2022-12-10T06:30:55;99490.33;;;8.06;100.00
42067;BME280;27734;47.028;28.820;2022-12-10T06:33:28;99475.63;;;8.09;100.00
42067;BME280;27734;47.028;28.820;2022-12-10T06:35:59;99471.36;;;8.13;100.00
42067;BME280;27734;47.028;28.820;2022-12-10T06:38:30;99471.49;;;8.18;100.00
42067;BME280;27734;47.028;28.820;2022-12-10T06:41:03;99477.72;;;8.21;100.00
42067;BME280;27734;47.028;28.820;2022-12-10T06:43:35;99475.23;;;8.26;100.00
42067;BME280;27734;47.028;28.820;2022-12-10T06:46:08;99470.97;;;8.30;100.00
42067;BME280;27734;47.028;28.820;2022-12-10T06:48:40;99464.09;;;8.33;100.00
42067;BME280;27734;47.028;28.820;2022-12-10T06:51:12;99464.22;;;8.38;100.00
42067;BME280;27734;47.028;28.820;2022-12-10T06:53:44;99468.78;;;8.43;100.00
42067;BME280;27734;47.028;28.820;2022-12-10T06:56:18;99472.40;;;8.49;100.00
42067;BME280;27734;47.028;28.820;2022-12-10T06:58:49;99468.13;;;8.52;100.00
42067;BME280;27734;47.028;28.820;2022-12-10T07:01:22;99467.42;;;8.58;100.00
42067;BME280;27734;47.028;28.820;2022-12-10T07:03:56;99472.78;;;8.62;100.00
42067;BME280;27734;47.028;28.820;2022-12-10T07:06:28;99469.49;;;8.70;100.00
42067;BME280;27734;47.028;28.820;2022-12-10T07:09:02;99460.03;;;8.75;100.00
42067;BME280;27734;47.028;28.820;2022-12-10T07:11:33;99474.06;;;8.78;100.00
42067;BME280;27734;47.028;28.820;2022-12-10T07:14:04;99471.61;;;8.85;100.00
42067;BME280;27734;47.028;28.820;2022-12-10T07:16:36;99473.47;;;8.89;100.00
42067;BME280;27734;47.028;28.820;2022-12-10T07:19:10;99464.91;;;8.94;100.00
42067;BME280;27734;47.028;28.820;2022-12-10T07:21:43;99464.16;;;9.00;100.00
42067;BME280;27734;47.028;28.820;2022-12-10T07:24:17;99462.49;;;9.04;100.00
42067;BME280;27734;47.028;28.820;2022-12-10T07:26:49;99459.12;;;9.08;100.00
42067;BME280;27734;47.028;28.820;2022-12-10T07:29:21;99467.88;;;9.10;100.00
42067;BME280;27734;47.028;28.820;2022-12-10T07:31:52;99467.95;;;9.13;100.00
42067;BME280;27734;47.028;28.820;2022-12-10T07:34:24;99465.45;;;9.17;100.00
42067;BME280;27734;47.028;28.820;2022-12-10T07:36:55;99462.08;;;9.22;100.00
42067;BME280;27734;47.028;28.820;2022-12-10T07:39:26;99472.63;;;9.25;100.00
42067;BME280;27734;47.028;28.820;2022-12-10T07:41:57;99465.69;;;9.27;100.00
42067;BME280;27734;47.028;28.820;2022-12-10T07:44:31;99466.66;;;9.30;100.00
42067;BME280;27734;47.028;28.820;2022-12-10T07:47:03;99463.22;;;9.33;100.00
42067;BME280;27734;47.028;28.820;2022-12-10T07:49:34;99452.78;;;9.34;100.00
42067;BME280;27734;47.028;28.820;2022-12-10T07:52:05;99456.34;;;9.37;100.00
42067;BME280;27734;47.028;28.820;2022-12-10T07:54:36;99458.09;;;9.38;100.00
42067;BME280;27734;47.028;28.820;2022-12-10T07:57:08;99454.63;;;9.39;100.00
42067;BME280;27734;47.028;28.820;2022-12-10T07:59:39;99458.16;;;9.41;100.00
42067;BME280;27734;47.028;28.820;2022-12-10T08:02:10;99458.20;;;9.42;100.00
42067;BME280;27734;47.028;28.820;2022-12-10T08:04:43;99455.62;;;9.44;100.00
42067;BME280;27734;47.028;28.820;2022-12-10T08:07:14;99455.66;;;9.45;100.00
42067;BME280;27734;47.028;28.820;2022-12-10T08:09:45;99454.78;;;9.45;100.00
42067;BME280;27734;47.028;28.820;2022-12-10T08:12:16;99444.30;;;9.45;100.00
42067;BME280;27734;47.028;28.820;2022-12-10T08:14:47;99435.61;;;9.46;100.00
42067;BME280;27734;47.028;28.820;2022-12-10T08:17:18;99441.76;;;9.48;100.00
42067;BME280;27734;47.028;28.820;2022-12-10T08:19:50;99441.76;;;9.48;100.00
42067;BME280;27734;47.028;28.820;2022-12-10T08:22:21;99447.91;;;9.50;100.00
42067;BME280;27734;47.028;28.820;2022-12-10T08:24:52;99442.67;;;9.50;100.00
42067;BME280;27734;47.028;28.820;2022-12-10T08:27:23;99444.45;;;9.51;100.00
42067;BME280;27734;47.028;28.820;2022-12-10T08:29:55;99433.14;;;9.53;100.00
42067;BME280;27734;47.028;28.820;2022-12-10T08:32:26;99438.45;;;9.57;100.00
42067;BME280;27734;47.028;28.820;2022-12-10T08:34:57;99429.75;;;9.58;100.00
42067;BME280;27734;47.028;28.820;2022-12-10T08:37:29;99423.60;;;9.56;100.00
42067;BME280;27734;47.028;28.820;2022-12-10T08:40:00;99437.61;;;9.58;100.00
42067;BME280;27734;47.028;28.820;2022-12-10T08:42:31;99417.53;;;9.58;100.00
42067;BME280;27734;47.028;28.820;2022-12-10T08:45:03;99421.05;;;9.59;100.00
42067;BME280;27734;47.028;28.820;2022-12-10T08:47:34;99409.70;;;9.60;100.00
42067;BME280;27734;47.028;28.820;2022-12-10T08:50:07;99421.09;;;9.60;100.00
42067;BME280;27734;47.028;28.820;2022-12-10T08:52:38;99415.02;;;9.63;100.00
42067;BME280;27734;47.028;28.820;2022-12-10T08:55:09;99409.77;;;9.63;100.00
42067;BME280;27734;47.028;28.820;2022-12-10T08:57:41;99407.22;;;9.66;100.00
42067;BME280;27734;47.028;28.820;2022-12-10T09:00:14;99400.30;;;9.68;100.00
42067;BME280;27734;47.028;28.820;2022-12-10T09:02:45;99397.72;;;9.69;100.00
42067;BME280;27734;47.028;28.820;2022-12-10T09:05:17;99388.95;;;9.69;100.00
42067;BME280;27734;47.028;28.820;2022-12-10T09:07:48;99400.34;;;9.69;100.00
42067;BME280;27734;47.028;28.820;2022-12-10T09:10:19;99395.97;;;9.70;100.00
42067;BME280;27734;47.028;28.820;2022-12-10T09:12:51;99388.21;;;9.75;100.00
42067;BME280;27734;47.028;28.820;2022-12-10T09:15:22;99395.27;;;9.77;100.00
42067;BME280;27734;47.028;28.820;2022-12-10T09:17:53;99390.96;;;9.81;100.00
42067;BME280;27734;47.028;28.820;2022-12-10T09:20:25;99388.38;;;9.82;100.00
42067;BME280;27734;47.028;28.820;2022-12-10T09:22:56;99382.33;;;9.85;100.00
42067;BME280;27734;47.028;28.820;2022-12-10T09:25:27;99382.33;;;9.85;100.00
42067;BME280;27734;47.028;28.820;2022-12-10T09:27:58;99376.21;;;9.86;100.00
42067;BME280;27734;47.028;28.820;2022-12-10T09:30:29;99371.91;;;9.88;100.00
42067;BME280;27734;47.028;28.820;2022-12-10T09:33:02;99370.22;;;9.92;100.00
42067;BME280;27734;47.028;28.820;2022-12-10T09:35:33;99369.44;;;9.96;100.00
42067;BME280;27734;47.028;28.820;2022-12-10T09:38:04;99364.27;;;9.99;100.00
42067;BME280;27734;47.028;28.820;2022-12-10T09:40:39;99353.78;;;9.99;100.00
42067;BME280;27734;47.028;28.820;2022-12-10T09:43:16;99360.73;;;9.98;100.00
42067;BME280;27734;47.028;28.820;2022-12-10T09:45:59;99358.14;;;10.00;100.00
42067;BME280;27734;47.028;28.820;2022-12-10T09:48:40;99348.56;;;10.02;100.00
42067;BME280;27734;47.028;28.820;2022-12-10T09:51:21;99341.70;;;10.07;100.00
42067;BME280;27734;47.028;28.820;2022-12-10T09:53:53;99340.04;;;10.12;100.00
42067;BME280;27734;47.028;28.820;2022-12-10T09:56:30;99329.58;;;10.14;100.00
42067;BME280;27734;47.028;28.820;2022-12-10T09:59:08;99328.73;;;10.15;100.00
42067;BME280;27734;47.028;28.820;2022-12-10T10:01:44;99321.78;;;10.17;100.00
42067;BME280;27734;47.028;28.820;2022-12-10T10:04:16;99328.73;;;10.15;100.00
42067;BME280;27734;47.028;28.820;2022-12-10T10:06:47;99323.50;;;10.15;100.00
42067;BME280;27734;47.028;28.820;2022-12-10T10:09:19;99326.15;;;10.16;100.00
42067;BME280;27734;47.028;28.820;2022-12-10T10:11:51;99321.72;;;10.14;100.00
42067;BME280;27734;47.028;28.820;2022-12-10T10:14:25;99316.50;;;10.15;100.00
42067;BME280;27734;47.028;28.820;2022-12-10T10:17:01;99316.53;;;10.17;100.00
42067;BME280;27734;47.028;28.820;2022-12-10T10:19:35;99313.02;;;10.15;100.00
42067;BME280;27734;47.028;28.820;2022-12-10T10:22:11;99310.36;;;10.13;100.00
42067;BME280;27734;47.028;28.820;2022-12-10T10:24:44;99308.61;;;10.14;100.00
42067;BME280;27734;47.028;28.820;2022-12-10T10:27:17;99301.56;;;10.11;100.00
42067;BME280;27734;47.028;28.820;2022-12-10T10:29:51;99302.44;;;10.10;100.00
42067;BME280;27734;47.028;28.820;2022-12-10T10:32:24;99299.82;;;10.10;100.00
42067;BME280;27734;47.028;28.820;2022-12-10T10:34:57;99298.05;;;10.09;100.00
42067;BME280;27734;47.028;28.820;2022-12-10T10:37:31;99284.09;;;10.10;100.00
42067;BME280;27734;47.028;28.820;2022-12-10T10:40:23;99287.61;;;10.12;100.00
42067;BME280;27734;47.028;28.820;2022-12-10T10:42:57;99290.27;;;10.14;100.00
42067;BME280;27734;47.028;28.820;2022-12-10T10:45:41;99292.86;;;10.12;100.00
42067;BME280;27734;47.028;28.820;2022-12-10T10:48:15;99292.86;;;10.12;100.00
42067;BME280;27734;47.028;28.820;2022-12-10T10:50:49;99291.11;;;10.13;100.00
42067;BME280;27734;47.028;28.820;2022-12-10T10:53:40;99289.34;;;10.10;100.00
42067;BME280;27734;47.028;28.820;2022-12-10T10:56:13;99302.41;;;10.08;100.00
42067;BME280;27734;47.028;28.820;2022-12-10T10:58:52;99291.08;;;10.11;100.00
42067;BME280;27734;47.028;28.820;2022-12-10T11:01:26;99299.82;;;10.10;100.00
42067;BME280;27734;47.028;28.820;2022-12-10T11:03:59;99300.69;;;10.11;100.00
42067;BME280;27734;47.028;28.820;2022-12-10T11:06:30;99291.98;;;10.12;100.00
42067;BME280;27734;47.028;28.820;2022-12-10T11:09:02;99286.77;;;10.13;100.00
42067;BME280;27734;47.028;28.820;2022-12-10T11:11:39;99298.19;;;10.17;100.00
42067;BME280;27734;47.028;28.820;2022-12-10T11:14:23;99298.24;;;10.20;100.00
42067;BME280;27734;47.028;28.820;2022-12-10T11:17:02;99299.08;;;10.19;100.00
42067;BME280;27734;47.028;28.820;2022-12-10T11:19:33;99298.19;;;10.17;100.00
42067;BME280;27734;47.028;28.820;2022-12-10T11:22:19;99288.54;;;10.16;100.00
42067;BME280;27734;47.028;28.820;2022-12-10T11:24:51;99278.88;;;10.12;100.00
42067;BME280;27734;47.028;28.820;2022-12-10T11:27:35;99272.70;;;10.10;100.00
42067;BME280;27734;47.028;28.820;2022-12-10T11:30:12;99272.67;;;10.08;100.00
42067;BME280;27734;47.028;28.820;2022-12-10T11:33:06;99267.35;;;10.03;100.00
42067;BME280;27734;47.028;28.820;2022-12-10T11:35:53;99269.95;;;10.00;100.00
42067;BME280;27734;47.028;28.820;2022-12-10T11:38:28;99266.42;;;10.00;100.00
42067;BME280;27734;47.028;28.820;2022-12-10T11:41:06;99268.14;;;9.98;100.00
42067;BME280;27734;47.028;28.820;2022-12-10T11:43:50;99282.99;;;9.97;100.00
42067;BME280;27734;47.028;28.820;2022-12-10T11:46:53;99277.78;;;9.99;100.00
42067;BME280;27734;47.028;28.820;2022-12-10T11:49:35;99275.13;;;9.97;100.00
42067;BME280;27734;47.028;28.820;2022-12-10T11:52:15;99269.86;;;9.96;100.00
42067;BME280;27734;47.028;28.820;2022-12-10T11:54:58;99265.44;;;9.93;100.00
42067;BME280;27734;47.028;28.820;2022-12-10T11:57:43;99265.38;;;9.90;100.00
42067;BME280;27734;47.028;28.820;2022-12-10T12:00:20;99261.92;;;9.91;100.00
42067;BME280;27734;47.028;28.820;2022-12-10T12:03:09;99254.92;;;9.92;100.00
42067;BME280;27734;47.028;28.820;2022-12-10T12:06:00;99256.65;;;9.89;100.00
42067;BME280;27734;47.028;28.820;2022-12-10T12:08:43;99263.60;;;9.89;100.00
42067;BME280;27734;47.028;28.820;2022-12-10T12:11:36;99267.13;;;9.89;100.00
42067;BME280;27734;47.028;28.820;2022-12-10T12:14:19;99261.86;;;9.88;100.00
42067;BME280;27734;47.028;28.820;2022-12-10T12:16:55;99267.10;;;9.88;100.00
42067;BME280;27734;47.028;28.820;2022-12-10T12:19:34;99267.97;;;9.88;100.00
42067;BME280;27734;47.028;28.820;2022-12-10T12:22:13;99262.73;;;9.88;100.00
42067;BME280;27734;47.028;28.820;2022-12-10T12:24:46;99267.13;;;9.89;100.00
42067;BME280;27734;47.028;28.820;2022-12-10T12:27:19;99268.00;;;9.90;100.00
42067;BME280;27734;47.028;28.820;2022-12-10T12:30:00;99268.90;;;9.92;100.00
42067;BME280;27734;47.028;28.820;2022-12-10T12:32:43;99261.04;;;9.92;100.00
42067;BME280;27734;47.028;28.820;2022-12-10T12:35:19;99266.31;;;9.94;100.00
42067;BME280;27734;47.028;28.820;2022-12-10T12:37:55;99264.59;;;9.94;100.00
42067;BME280;27734;47.028;28.820;2022-12-10T12:40:33;99266.31;;;9.94;100.00
42067;BME280;27734;47.028;28.820;2022-12-10T12:43:10;99278.54;;;9.93;100.00
42067;BME280;27734;47.028;28.820;2022-12-10T12:45:44;99277.67;;;9.93;100.00
42067;BME280;27734;47.028;28.820;2022-12-10T12:48:22;99276.77;;;9.92;100.00
42067;BME280;27734;47.028;28.820;2022-12-10T12:50:57;99269.80;;;9.93;100.00
42067;BME280;27734;47.028;28.820;2022-12-10T12:53:30;99268.90;;;9.92;100.00
42067;BME280;27734;47.028;28.820;2022-12-10T12:56:05;99265.44;;;9.93;100.00
42067;BME280;27734;47.028;28.820;2022-12-10T12:58:43;99268.09;;;9.95;100.00
42067;BME280;27734;47.028;28.820;2022-12-10T13:01:30;99269.92;;;9.99;100.00
42067;BME280;27734;47.028;28.820;2022-12-10T13:04:02;99275.24;;;10.05;100.00
42067;BME280;27734;47.028;28.820;2022-12-10T13:06:36;99277.10;;;10.11;100.00
42067;BME280;27734;47.028;28.820;2022-12-10T13:09:26;99281.61;;;10.18;100.00
42067;BME280;27734;47.028;28.820;2022-12-10T13:12:26;99281.72;;;10.24;100.00
42067;BME280;27734;47.028;28.820;2022-12-10T13:15:13;99273.94;;;10.29;100.00
42067;BME280;27734;47.028;28.820;2022-12-10T13:18:03;99273.98;;;10.32;100.00
42067;BME280;27734;47.028;28.820;2022-12-10T13:20:40;99278.41;;;10.34;100.00
42067;BME280;27734;47.028;28.820;2022-12-10T13:23:30;99280.24;;;10.38;100.00
42067;BME280;27734;47.028;28.820;2022-12-10T13:26:03;99274.10;;;10.36;100.00
42067;BME280;27734;47.028;28.820;2022-12-10T13:28:49;99272.38;;;10.38;100.00